createdAt,value
2023-02-13T00:00:25.154Z,14.77
2023-02-13T00:02:52.993Z,13.70
2023-02-13T00:05:20.787Z,15.53
2023-02-13T00:07:48.373Z,12.57
2023-02-13T00:10:17.059Z,12.10
2023-02-13T00:12:44.365Z,12.10
2023-02-13T00:15:11.928Z,13.83
2023-02-13T00:17:39.597Z,15.17
2023-02-13T00:20:07.241Z,12.73
2023-02-13T00:22:37.786Z,12.83
2023-02-13T00:25:06.208Z,12.90
2023-02-13T00:27:33.466Z,12.17
2023-02-13T00:30:01.366Z,11.87
2023-02-13T00:32:28.679Z,12.40
2023-02-13T00:34:56.789Z,12.27
2023-02-13T00:37:24.170Z,13.07
2023-02-13T00:39:51.883Z,12.50
2023-02-13T00:42:19.297Z,12.93
2023-02-13T00:44:46.749Z,12.27
2023-02-13T00:47:14.994Z,10.93
2023-02-13T00:49:42.623Z,11.73
2023-02-13T00:52:10.025Z,11.40
2023-02-13T00:54:37.363Z,12.50
2023-02-13T00:57:05.135Z,11.87
2023-02-13T00:59:32.565Z,13.07
2023-02-13T01:02:00.159Z,11.50
2023-02-13T01:04:27.931Z,11.60
2023-02-13T01:06:55.352Z,12.20
2023-02-13T01:09:22.877Z,14.27
2023-02-13T01:11:50.569Z,12.77
2023-02-13T01:14:18.000Z,12.10
2023-02-13T01:16:45.382Z,12.27
2023-02-13T01:19:13.101Z,13.90
2023-02-13T01:21:40.482Z,13.77
2023-02-13T01:24:08.052Z,14.17
2023-02-13T01:26:35.648Z,14.73
2023-02-13T01:29:03.230Z,14.63
2023-02-13T01:31:30.787Z,16.53
2023-02-13T01:33:58.604Z,16.23
2023-02-13T01:36:26.525Z,16.20
2023-02-13T01:38:56.824Z,17.50
2023-02-13T01:41:24.577Z,18.87
2023-02-13T01:43:53.591Z,19.80
2023-02-13T01:46:30.358Z,18.40
2023-02-13T01:49:01.990Z,18.03
2023-02-13T01:51:32.086Z,19.87
2023-02-13T01:54:01.501Z,17.87
2023-02-13T01:56:35.050Z,18.10
2023-02-13T01:59:03.668Z,16.97
2023-02-13T02:01:32.685Z,16.77
2023-02-13T02:04:04.110Z,18.47
2023-02-13T02:06:33.860Z,18.60
2023-02-13T02:09:03.257Z,17.90
2023-02-13T02:11:36.634Z,24.07
2023-02-13T02:14:04.265Z,19.67
2023-02-13T02:16:33.328Z,23.93
2023-02-13T02:19:03.515Z,21.00
2023-02-13T02:21:36.953Z,23.03
2023-02-13T02:24:04.269Z,20.40
2023-02-13T02:26:40.575Z,19.27
2023-02-13T02:29:10.940Z,19.40
2023-02-13T02:31:38.413Z,22.57
2023-02-13T02:34:08.956Z,19.97
2023-02-13T02:36:42.402Z,20.60
2023-02-13T02:39:30.092Z,23.00
2023-02-13T02:42:17.274Z,24.67
2023-02-13T02:44:49.574Z,26.77
2023-02-13T02:47:46.504Z,27.57
2023-02-13T02:50:32.788Z,27.80
2023-02-13T02:53:06.234Z,28.00
2023-02-13T02:55:39.066Z,31.43
2023-02-13T02:58:27.737Z,29.13
2023-02-13T03:01:15.162Z,28.57
2023-02-13T03:04:01.248Z,29.43
2023-02-13T03:06:34.244Z,31.57
2023-02-13T03:09:23.364Z,29.83
2023-02-13T03:12:11.093Z,30.03
2023-02-13T03:14:38.771Z,26.77
2023-02-13T03:17:26.085Z,29.57
2023-02-13T03:20:22.143Z,25.00
2023-02-13T03:23:04.884Z,25.97
2023-02-13T03:25:40.042Z,25.93
2023-02-13T03:28:26.199Z,25.47
2023-02-13T03:31:12.652Z,26.30
2023-02-13T03:34:04.106Z,27.40
2023-02-13T03:37:16.277Z,25.77
2023-02-13T03:39:47.375Z,30.23
2023-02-13T03:42:34.132Z,29.17
2023-02-13T03:45:23.005Z,29.87
2023-02-13T03:47:52.536Z,29.07
2023-02-13T03:50:20.591Z,32.07
2023-02-13T03:52:56.978Z,32.03
2023-02-13T03:55:54.100Z,28.87
2023-02-13T03:58:45.825Z,29.07
2023-02-13T04:01:16.481Z,28.20
2023-02-13T04:03:46.870Z,28.03
2023-02-13T04:06:16.962Z,32.73
2023-02-13T04:08:44.661Z,37.27
2023-02-13T04:11:12.068Z,33.07
2023-02-13T04:13:49.934Z,38.97
2023-02-13T04:16:19.022Z,37.93
2023-02-13T04:18:46.521Z,40.07
2023-02-13T04:21:13.835Z,35.57
2023-02-13T04:23:41.231Z,82.83
2023-02-13T04:26:10.077Z,38.20
2023-02-13T04:28:37.760Z,41.17
2023-02-13T04:31:05.168Z,29.60
2023-02-13T04:33:32.540Z,31.00
2023-02-13T04:36:00.043Z,33.23
2023-02-13T04:38:27.515Z,29.33
2023-02-13T04:40:54.969Z,32.97
2023-02-13T04:43:22.946Z,37.67
2023-02-13T04:45:50.987Z,32.40
2023-02-13T04:48:18.452Z,34.53
2023-02-13T04:50:45.776Z,33.07
2023-02-13T04:53:13.047Z,62.60
2023-02-13T04:55:40.644Z,64.37
2023-02-13T04:58:07.947Z,78.03
2023-02-13T05:00:35.236Z,82.37
2023-02-13T05:03:06.643Z,37.13
2023-02-13T05:05:33.968Z,42.30
2023-02-13T05:08:01.385Z,68.70
2023-02-13T05:10:29.030Z,156.47
2023-02-13T05:12:56.551Z,44.63
2023-02-13T05:15:24.441Z,31.13
2023-02-13T05:17:52.487Z,54.63
2023-02-13T05:20:20.192Z,79.03
2023-02-13T05:23:07.241Z,107.23
2023-02-13T05:25:35.284Z,117.33
2023-02-13T05:28:03.072Z,34.43
2023-02-13T05:30:30.413Z,27.37
2023-02-13T05:32:57.892Z,59.50
2023-02-13T05:35:25.735Z,90.07
2023-02-13T05:37:53.486Z,59.57
2023-02-13T05:40:22.737Z,95.50
2023-02-13T05:42:50.566Z,67.90
2023-02-13T05:45:17.928Z,120.63
2023-02-13T05:47:45.275Z,74.20
2023-02-13T05:50:12.572Z,95.93
2023-02-13T05:52:40.335Z,61.90
2023-02-13T05:55:08.007Z,74.37
2023-02-13T05:57:35.371Z,84.07
2023-02-13T06:00:02.875Z,52.63
2023-02-13T06:02:30.742Z,107.73
2023-02-13T06:04:58.637Z,71.30
2023-02-13T06:07:26.083Z,66.70
2023-02-13T06:09:53.541Z,49.90
2023-02-13T06:12:20.813Z,102.53
2023-02-13T06:14:48.194Z,70.57
2023-02-13T06:17:16.429Z,70.40
2023-02-13T06:19:44.041Z,46.03
2023-02-13T06:22:11.332Z,31.13
2023-02-13T06:24:38.738Z,80.27
2023-02-13T06:27:06.383Z,74.90
2023-02-13T06:29:34.158Z,80.80
2023-02-13T06:32:02.747Z,92.60
2023-02-13T06:34:31.393Z,83.50
2023-02-13T06:36:58.840Z,45.50
2023-02-13T06:39:26.113Z,58.37
2023-02-13T06:41:53.447Z,83.63
2023-02-13T06:44:20.912Z,57.53
2023-02-13T06:46:48.383Z,38.63
2023-02-13T06:49:15.700Z,47.30
2023-02-13T06:51:43.114Z,52.50
2023-02-13T06:54:10.436Z,74.87
2023-02-13T06:56:37.795Z,48.50
2023-02-13T06:59:05.028Z,37.03
2023-02-13T07:01:32.938Z,35.57
2023-02-13T07:04:00.224Z,46.23
2023-02-13T07:06:27.690Z,49.23
2023-02-13T07:08:56.083Z,99.10
2023-02-13T07:11:24.912Z,63.90
2023-02-13T07:13:53.186Z,61.07
2023-02-13T07:16:20.502Z,24.37
2023-02-13T07:18:47.818Z,59.40
2023-02-13T07:21:15.512Z,57.17
2023-02-13T07:23:42.993Z,47.87
2023-02-13T07:26:11.302Z,32.57
2023-02-13T07:28:39.019Z,31.67
2023-02-13T07:31:07.105Z,51.03
2023-02-13T07:33:34.927Z,23.60
2023-02-13T07:36:03.717Z,26.93
2023-02-13T07:38:34.554Z,38.23
2023-02-13T07:41:03.210Z,71.63
2023-02-13T07:43:31.138Z,46.13
2023-02-13T07:46:02.532Z,53.07
2023-02-13T07:48:31.802Z,40.07
2023-02-13T07:51:03.809Z,36.03
2023-02-13T07:53:31.322Z,72.57
2023-02-13T07:55:58.948Z,89.00
2023-02-13T07:58:26.518Z,22.60
2023-02-13T08:00:53.899Z,97.33
2023-02-13T08:03:21.672Z,61.97
2023-02-13T08:05:49.726Z,88.87
2023-02-13T08:08:17.612Z,72.57
2023-02-13T08:11:03.721Z,83.73
2023-02-13T08:13:31.067Z,52.97
2023-02-13T08:15:58.833Z,68.87
2023-02-13T08:18:26.311Z,62.07
2023-02-13T08:20:53.809Z,53.57
2023-02-13T08:23:21.191Z,58.27
2023-02-13T08:25:49.943Z,37.70
2023-02-13T08:28:17.593Z,71.13
2023-02-13T08:30:45.292Z,44.50
2023-02-13T08:33:12.675Z,39.97
2023-02-13T08:35:40.046Z,53.23
2023-02-13T08:38:07.550Z,58.43
2023-02-13T08:40:34.906Z,45.00
2023-02-13T08:43:06.629Z,36.53
2023-02-13T08:45:34.525Z,47.50
2023-02-13T08:48:04.191Z,35.73
2023-02-13T08:50:32.148Z,50.23
2023-02-13T08:52:59.993Z,32.40
2023-02-13T08:55:28.307Z,31.20
2023-02-13T08:57:55.664Z,40.80
2023-02-13T09:00:23.128Z,27.17
2023-02-13T09:02:50.747Z,50.40
2023-02-13T09:05:18.268Z,51.63
2023-02-13T09:07:45.929Z,61.63
2023-02-13T09:10:13.426Z,44.07
2023-02-13T09:12:40.876Z,35.47
2023-02-13T09:15:08.689Z,51.60
2023-02-13T09:17:36.764Z,41.20
2023-02-13T09:20:04.400Z,44.67
2023-02-13T09:22:31.733Z,56.67
2023-02-13T09:25:01.147Z,19.53
2023-02-13T09:27:28.485Z,23.50
2023-02-13T09:29:55.966Z,29.13
2023-02-13T09:32:23.376Z,40.67
2023-02-13T09:34:50.887Z,32.23
2023-02-13T09:37:18.227Z,26.40
2023-02-13T09:39:45.548Z,22.73
2023-02-13T09:42:19.066Z,21.03
2023-02-13T09:44:47.260Z,20.60
2023-02-13T09:47:23.298Z,20.53
2023-02-13T09:49:52.991Z,27.10
2023-02-13T09:52:20.795Z,22.57
2023-02-13T09:54:48.291Z,28.03
2023-02-13T09:57:26.566Z,25.77
2023-02-13T09:59:58.020Z,21.93
2023-02-13T10:02:45.279Z,20.67
2023-02-13T10:05:33.236Z,25.97
2023-02-13T10:08:06.709Z,15.43
2023-02-13T10:10:34.069Z,18.50
2023-02-13T10:13:16.685Z,24.37
2023-02-13T10:15:50.009Z,15.67
2023-02-13T10:18:20.370Z,34.90
2023-02-13T10:20:47.686Z,22.20
2023-02-13T10:23:22.456Z,15.80
2023-02-13T10:26:09.931Z,20.00
2023-02-13T10:28:40.714Z,18.93
2023-02-13T10:31:11.430Z,20.07
2023-02-13T10:33:44.884Z,15.37
2023-02-13T10:36:12.202Z,16.33
2023-02-13T10:38:42.394Z,16.30
2023-02-13T10:41:19.137Z,19.13
2023-02-13T10:44:05.379Z,21.63
2023-02-13T10:46:32.883Z,22.57
2023-02-13T10:49:01.506Z,26.40
2023-02-13T10:51:36.334Z,16.23
2023-02-13T10:54:22.519Z,47.90
2023-02-13T10:56:56.120Z,24.40
2023-02-13T10:59:38.868Z,29.57
2023-02-13T11:02:29.558Z,20.90
2023-02-13T11:05:08.745Z,21.20
2023-02-13T11:07:37.595Z,24.77
2023-02-13T11:10:10.077Z,28.63
2023-02-13T11:12:37.471Z,21.20
2023-02-13T11:15:09.251Z,35.83
2023-02-13T11:17:37.994Z,23.27
2023-02-13T11:20:08.657Z,23.27
2023-02-13T11:22:42.805Z,22.43
2023-02-13T11:25:21.487Z,22.47
2023-02-13T11:27:50.815Z,24.37
2023-02-13T11:30:24.082Z,22.90
2023-02-13T11:33:02.087Z,20.27
2023-02-13T11:35:31.139Z,36.27
2023-02-13T11:38:18.204Z,24.30
2023-02-13T11:40:49.914Z,17.63
2023-02-13T11:43:23.380Z,23.27
2023-02-13T11:46:01.733Z,21.17
2023-02-13T11:48:29.265Z,22.50
2023-02-13T11:50:57.433Z,18.27
2023-02-13T11:53:26.748Z,15.87
2023-02-13T11:56:06.532Z,19.70
2023-02-13T11:58:34.134Z,16.67
2023-02-13T12:01:10.579Z,22.13
2023-02-13T12:03:38.997Z,20.97
2023-02-13T12:06:15.711Z,19.83
2023-02-13T12:08:47.627Z,23.37
2023-02-13T12:11:18.111Z,20.67
2023-02-13T12:13:46.152Z,21.43
2023-02-13T12:16:29.647Z,19.20
2023-02-13T12:19:00.377Z,18.67
2023-02-13T12:21:32.809Z,27.40
2023-02-13T12:24:10.291Z,18.17
2023-02-13T12:26:46.456Z,27.23
2023-02-13T12:29:26.307Z,18.57
2023-02-13T12:32:04.129Z,21.10
2023-02-13T12:34:34.913Z,19.27
2023-02-13T12:37:02.171Z,18.10
2023-02-13T12:39:37.035Z,21.03
2023-02-13T12:42:37.030Z,17.13
2023-02-13T12:45:19.574Z,37.60
2023-02-13T12:47:59.372Z,20.03
2023-02-13T12:50:41.876Z,18.40
2023-02-13T12:53:29.538Z,18.70
2023-02-13T12:56:15.968Z,16.07
2023-02-13T12:58:46.272Z,16.63
2023-02-13T13:01:18.179Z,20.53
2023-02-13T13:03:45.460Z,15.63
2023-02-13T13:06:22.701Z,18.10
2023-02-13T13:09:08.885Z,23.53
2023-02-13T13:11:56.301Z,22.23
2023-02-13T13:14:27.422Z,20.17
2023-02-13T13:16:54.788Z,17.03
2023-02-13T13:19:49.428Z,22.70
2023-02-13T13:22:28.705Z,23.53
2023-02-13T13:24:56.465Z,18.50
2023-02-13T13:27:47.197Z,23.27
2023-02-13T13:30:18.982Z,23.07
2023-02-13T13:32:47.293Z,21.63
2023-02-13T13:35:18.453Z,21.20
2023-02-13T13:38:02.884Z,20.00
2023-02-13T13:40:42.216Z,18.83
2023-02-13T13:43:11.112Z,26.27
2023-02-13T13:45:47.521Z,25.43
2023-02-13T13:48:37.621Z,32.47
2023-02-13T13:51:07.243Z,22.40
2023-02-13T13:53:36.181Z,23.47
2023-02-13T13:56:09.411Z,18.80
2023-02-13T13:58:36.855Z,25.27
2023-02-13T14:01:28.472Z,25.03
2023-02-13T14:04:00.314Z,19.73
2023-02-13T14:06:29.557Z,22.00
2023-02-13T14:08:59.045Z,24.20
2023-02-13T14:11:26.510Z,21.33
2023-02-13T14:13:53.874Z,17.87
2023-02-13T14:16:39.807Z,20.83
2023-02-13T14:19:07.821Z,20.03
2023-02-13T14:21:35.260Z,18.33
2023-02-13T14:24:04.132Z,23.23
2023-02-13T14:26:36.307Z,21.83
2023-02-13T14:29:23.986Z,22.23
2023-02-13T14:32:00.924Z,20.43
2023-02-13T14:34:34.433Z,20.97
2023-02-13T14:37:04.477Z,24.47
2023-02-13T14:39:33.622Z,23.50
2023-02-13T14:42:01.862Z,33.00
2023-02-13T14:44:38.522Z,22.27
2023-02-13T14:47:12.453Z,23.80
2023-02-13T14:49:41.469Z,23.77
2023-02-13T14:52:35.378Z,25.73
2023-02-13T14:55:08.572Z,26.27
2023-02-13T14:57:58.144Z,24.07
2023-02-13T15:00:45.654Z,25.33
2023-02-13T15:03:25.250Z,22.00
2023-02-13T15:05:54.542Z,21.07
2023-02-13T15:08:26.971Z,22.20
2023-02-13T15:10:56.090Z,27.17
2023-02-13T15:13:34.455Z,26.30
2023-02-13T15:16:07.717Z,23.83
2023-02-13T15:18:55.429Z,26.83
2023-02-13T15:21:26.567Z,27.20
2023-02-13T15:23:58.154Z,25.73
2023-02-13T15:26:29.063Z,25.97
2023-02-13T15:28:59.471Z,24.73
2023-02-13T15:31:30.873Z,27.10
2023-02-13T15:33:58.855Z,29.90
2023-02-13T15:36:27.280Z,23.70
2023-02-13T15:39:09.533Z,29.23
2023-02-13T15:41:39.454Z,24.90
2023-02-13T15:44:07.737Z,28.63
2023-02-13T15:46:36.125Z,20.07
2023-02-13T15:49:07.693Z,32.40
2023-02-13T15:51:35.107Z,20.53
2023-02-13T15:54:04.328Z,24.70
2023-02-13T15:56:32.322Z,28.57
2023-02-13T15:59:00.621Z,23.93
2023-02-13T16:01:29.433Z,46.97
2023-02-13T16:04:07.661Z,24.80
2023-02-13T16:06:36.525Z,22.63
2023-02-13T16:09:04.520Z,30.57
2023-02-13T16:11:35.832Z,31.53
2023-02-13T16:14:24.318Z,23.47
2023-02-13T16:16:57.011Z,27.43
2023-02-13T16:19:35.501Z,36.67
2023-02-13T16:22:05.556Z,33.37
2023-02-13T16:24:32.970Z,38.80
2023-02-13T16:27:00.677Z,36.77
2023-02-13T16:29:28.660Z,32.97
2023-02-13T16:32:04.772Z,35.50
2023-02-13T16:34:32.536Z,43.93
2023-02-13T16:36:59.846Z,30.17
2023-02-13T16:39:29.656Z,26.53
2023-02-13T16:42:00.128Z,55.00
2023-02-13T16:44:34.154Z,29.87
2023-02-13T16:47:06.066Z,41.07
2023-02-13T16:49:34.672Z,44.87
2023-02-13T16:52:09.231Z,31.33
2023-02-13T16:54:39.439Z,39.23
2023-02-13T16:57:45.510Z,75.63
2023-02-13T17:00:23.754Z,36.73
2023-02-13T17:02:55.567Z,61.47
2023-02-13T17:05:29.502Z,67.17
2023-02-13T17:07:59.563Z,53.73
2023-02-13T17:10:30.157Z,46.00
2023-02-13T17:12:59.788Z,76.67
2023-02-13T17:15:28.255Z,41.63
2023-02-13T17:17:56.392Z,64.37
2023-02-13T17:20:28.370Z,73.70
2023-02-13T17:22:57.824Z,70.23
2023-02-13T17:25:26.778Z,106.80
2023-02-13T17:27:58.658Z,62.67
2023-02-13T17:30:31.188Z,60.97
2023-02-13T17:33:05.056Z,34.90
2023-02-13T17:35:33.437Z,58.63
2023-02-13T17:38:00.723Z,52.33
2023-02-13T17:40:30.240Z,29.50
2023-02-13T17:42:58.288Z,65.00
2023-02-13T17:45:26.929Z,44.17
2023-02-13T17:47:54.740Z,78.67
2023-02-13T17:50:22.265Z,43.77
2023-02-13T17:52:49.780Z,52.30
2023-02-13T17:55:17.118Z,39.90
2023-02-13T17:57:45.044Z,54.70
2023-02-13T18:00:12.534Z,60.03
2023-02-13T18:02:39.770Z,40.97
2023-02-13T18:05:07.362Z,57.27
2023-02-13T18:07:34.760Z,43.73
2023-02-13T18:10:03.427Z,45.90
2023-02-13T18:12:31.005Z,66.33
2023-02-13T18:14:58.293Z,66.03
2023-02-13T18:17:25.537Z,71.50
2023-02-13T18:19:52.874Z,54.30
2023-02-13T18:22:20.244Z,64.47
2023-02-13T18:24:47.630Z,55.70
2023-02-13T18:27:15.114Z,34.23
2023-02-13T18:29:42.562Z,80.37
2023-02-13T18:32:10.664Z,49.77
2023-02-13T18:34:38.797Z,43.47
2023-02-13T18:37:06.992Z,31.17
2023-02-13T18:39:34.727Z,41.63
2023-02-13T18:42:02.524Z,69.77
2023-02-13T18:44:30.048Z,59.17
2023-02-13T18:46:57.755Z,87.93
2023-02-13T18:49:25.512Z,49.07
2023-02-13T18:51:53.116Z,76.17
2023-02-13T18:54:21.288Z,34.77
2023-02-13T18:56:49.152Z,37.83
2023-02-13T18:59:16.583Z,33.83
2023-02-13T19:01:43.995Z,75.30
2023-02-13T19:04:12.030Z,50.27
2023-02-13T19:06:40.794Z,81.33
2023-02-13T19:09:08.268Z,51.10
2023-02-13T19:11:35.808Z,62.30
2023-02-13T19:14:03.673Z,70.40
2023-02-13T19:16:31.911Z,48.80
2023-02-13T19:19:00.536Z,32.17
2023-02-13T19:21:29.759Z,38.77
2023-02-13T19:23:57.515Z,60.13
2023-02-13T19:26:26.296Z,44.57
2023-02-13T19:28:54.180Z,70.73
2023-02-13T19:31:23.050Z,42.33
2023-02-13T19:33:51.219Z,73.37
2023-02-13T19:36:19.978Z,40.23
2023-02-13T19:38:47.750Z,48.87
2023-02-13T19:41:16.646Z,52.17
2023-02-13T19:43:51.189Z,49.37
2023-02-13T19:46:20.019Z,36.40
2023-02-13T19:48:47.525Z,35.30
2023-02-13T19:51:16.191Z,56.20
2023-02-13T19:53:43.823Z,45.90
2023-02-13T19:56:11.650Z,45.63
2023-02-13T19:58:39.501Z,34.30
2023-02-13T20:01:14.403Z,37.20
2023-02-13T20:03:42.482Z,68.77
2023-02-13T20:06:13.994Z,41.27
2023-02-13T20:08:42.949Z,53.37
2023-02-13T20:11:11.357Z,54.50
2023-02-13T20:13:39.295Z,58.20
2023-02-13T20:16:11.244Z,55.77
2023-02-13T20:18:39.223Z,53.07
2023-02-13T20:21:11.149Z,68.63
2023-02-13T20:23:38.448Z,54.10
2023-02-13T20:26:06.705Z,45.57
2023-02-13T20:28:34.444Z,53.00
2023-02-13T20:31:04.119Z,57.93
2023-02-13T20:33:31.687Z,57.93
2023-02-13T20:35:59.204Z,63.53
2023-02-13T20:38:26.557Z,64.13
2023-02-13T20:40:53.940Z,90.57
2023-02-13T20:43:21.505Z,70.30
2023-02-13T20:45:48.846Z,61.93
2023-02-13T20:48:16.939Z,62.93
2023-02-13T20:50:44.307Z,55.27
2023-02-13T20:53:11.803Z,70.90
2023-02-13T20:55:39.474Z,52.63
2023-02-13T20:58:06.845Z,45.47
2023-02-13T21:00:34.113Z,50.77
2023-02-13T21:03:01.586Z,51.67
2023-02-13T21:05:28.992Z,52.87
2023-02-13T21:07:56.355Z,49.63
2023-02-13T21:10:23.681Z,50.17
2023-02-13T21:12:51.380Z,56.37
2023-02-13T21:15:18.947Z,51.57
2023-02-13T21:17:46.513Z,53.87
2023-02-13T21:20:14.172Z,48.70
2023-02-13T21:22:41.642Z,59.80
2023-02-13T21:25:09.094Z,54.17
2023-02-13T21:27:36.520Z,72.27
2023-02-13T21:30:04.146Z,62.90
2023-02-13T21:32:31.417Z,46.67
2023-02-13T21:34:58.677Z,60.27
2023-02-13T21:37:26.312Z,60.70
2023-02-13T21:39:53.827Z,39.10
2023-02-13T21:42:21.113Z,35.77
2023-02-13T21:44:51.388Z,55.90
2023-02-13T21:47:18.705Z,55.03
2023-02-13T21:49:46.025Z,46.23
2023-02-13T21:52:13.450Z,121.70
2023-02-13T21:54:40.858Z,43.83
2023-02-13T21:57:08.275Z,41.60
2023-02-13T21:59:35.887Z,59.47
2023-02-13T22:02:03.329Z,57.60
2023-02-13T22:04:30.861Z,55.33
2023-02-13T22:06:58.980Z,46.17
2023-02-13T22:09:27.695Z,38.90
2023-02-13T22:11:55.359Z,45.47
2023-02-13T22:14:22.670Z,43.23
2023-02-13T22:16:51.947Z,58.40
2023-02-13T22:19:20.333Z,51.33
2023-02-13T22:21:47.693Z,41.83
2023-02-13T22:24:16.210Z,37.20
2023-02-13T22:26:48.405Z,46.20
2023-02-13T22:29:17.765Z,35.13
2023-02-13T22:31:45.456Z,31.73
2023-02-13T22:34:14.123Z,44.67
2023-02-13T22:36:41.535Z,62.10
2023-02-13T22:39:10.046Z,60.10
2023-02-13T22:41:37.791Z,81.47
2023-02-13T22:44:05.567Z,63.17
2023-02-13T22:46:34.203Z,86.27
2023-02-13T22:49:01.845Z,93.70
2023-02-13T22:51:30.852Z,54.10
2023-02-13T22:53:58.645Z,61.97
2023-02-13T22:56:26.643Z,39.73
2023-02-13T22:58:54.142Z,95.17
2023-02-13T23:01:23.342Z,52.73
2023-02-13T23:03:51.658Z,130.07
2023-02-13T23:06:20.031Z,57.93
2023-02-13T23:08:52.938Z,57.10
2023-02-13T23:11:40.456Z,53.20
2023-02-13T23:14:08.107Z,58.47
2023-02-13T23:16:53.914Z,35.40
2023-02-13T23:19:21.639Z,41.13
2023-02-13T23:21:49.083Z,75.90
2023-02-13T23:24:16.715Z,61.67
2023-02-13T23:26:44.288Z,38.00
2023-02-13T23:29:11.915Z,105.80
2023-02-13T23:31:40.005Z,77.43
2023-02-13T23:34:07.530Z,59.67
2023-02-13T23:36:35.598Z,43.87
2023-02-13T23:39:03.218Z,47.90
2023-02-13T23:41:30.689Z,56.03
2023-02-13T23:43:57.991Z,60.73
2023-02-13T23:46:25.790Z,39.57
2023-02-13T23:48:53.212Z,60.93
2023-02-13T23:51:23.118Z,61.63
2023-02-13T23:53:53.173Z,82.03
2023-02-13T23:56:21.174Z,95.53
2023-02-13T23:58:48.488Z,58.40
